Time;durP1;ratioP1;P1;durP2;ratioP2;P2;SDS_P1;SDS_P2;PMS_P1;PMS_P2;Temp;Humidity;BMP_temperature;BMP_pressure;BME280_temperature;BME280_humidity;BME280_pressure;Samples;Min_cycle;Max_cycle;Signal;HPM_P1;HPM_P2
2022/07/12 00:00:38;;;;;;;0.10;0.10;;;17.30;82.70;;;18.85;69.84;102499.56;2007045;29;20527;-63
2022/07/12 00:01:40;;;;;;;0.20;0.20;;;17.30;82.80;;;18.80;69.98;102505.34;2007735;29;20084;-63
2022/07/12 00:02:44;;;;;;;0.10;0.10;;;17.20;82.90;;;18.73;69.88;102505.16;2006885;29;20084;-62
2022/07/12 00:03:46;;;;;;;0.10;0.10;;;17.20;83.20;;;18.70;70.06;102513.28;2006560;29;20109;-62
2022/07/12 00:04:51;;;;;;;0.20;0.20;;;17.20;83.30;;;18.67;70.21;102512.06;1999605;29;20528;-64
2022/07/12 00:05:54;;;;;;;0.10;0.10;;;17.10;83.40;;;18.67;70.25;102508.50;2007028;29;20049;-65
2022/07/12 00:06:58;;;;;;;0.20;0.20;;;17.10;83.50;;;18.57;70.61;102498.91;2007988;29;20572;-62
2022/07/12 00:08:00;;;;;;;0.10;0.10;;;17.10;83.70;;;18.66;70.25;102518.66;2005040;29;20165;-63
2022/07/12 00:09:04;;;;;;;0.10;0.10;;;17.10;83.80;;;18.61;70.65;102508.00;2001973;29;20054;-61
2022/07/12 00:10:08;;;;;;;0.10;0.10;;;17.10;83.80;;;18.55;70.49;102511.34;1998842;29;20187;-63
2022/07/12 00:11:11;;;;;;;0.10;0.10;;;17.00;83.80;;;18.51;70.74;102505.78;1998741;29;20069;-64
2022/07/12 00:12:14;;;;;;;0.10;0.10;;;17.00;83.80;;;18.51;70.59;102511.25;2008052;29;20061;-61
2022/07/12 00:13:17;;;;;;;0.10;0.10;;;17.00;83.90;;;18.52;70.67;102512.84;2007717;29;20426;-61
2022/07/12 00:14:20;;;;;;;0.10;0.10;;;17.00;84.00;;;18.53;70.93;102513.63;2007553;29;20106;-62
2022/07/12 00:15:24;;;;;;;0.10;0.10;;;17.00;84.10;;;18.51;71.28;102514.00;2015375;29;20127;-62
2022/07/12 00:16:27;;;;;;;0.10;0.10;;;17.00;84.00;;;18.54;71.10;102513.28;2015554;29;21103;-62
2022/07/12 00:17:31;;;;;;;0.10;0.10;;;17.10;84.10;;;18.58;70.65;102507.91;2015302;29;20410;-62
2022/07/12 00:18:33;;;;;;;0.10;0.10;;;17.10;84.00;;;18.60;70.61;102517.34;2014273;29;20139;-62
2022/07/12 00:19:37;;;;;;;0.10;0.10;;;17.10;83.90;;;18.61;70.70;102521.69;2014619;29;20141;-62
2022/07/12 00:20:39;;;;;;;0.20;0.20;;;17.10;84.00;;;18.62;70.54;102516.97;2015796;29;20060;-62
2022/07/12 00:21:42;;;;;;;0.10;0.10;;;17.10;84.00;;;18.59;70.89;102518.50;2014853;29;20128;-62
2022/07/12 00:22:46;;;;;;;0.10;0.10;;;17.10;83.90;;;18.59;70.84;102513.03;2015331;29;20095;-62
2022/07/12 00:23:49;;;;;;;0.10;0.10;;;17.10;83.90;;;18.59;70.89;102510.28;2015039;29;20049;-62
2022/07/12 00:24:52;;;;;;;0.10;0.10;;;17.10;83.90;;;18.60;70.89;102514.59;2014301;29;20057;-62
2022/07/12 00:25:55;;;;;;;0.20;0.20;;;17.20;83.90;;;18.59;70.65;102513.03;2015763;29;20060;-63
2022/07/12 00:26:57;;;;;;;0.10;0.10;;;17.10;83.80;;;18.56;71.07;102516.47;2014289;29;20419;-63
2022/07/12 00:28:01;;;;;;;0.17;0.17;;;17.10;83.70;;;18.49;70.96;102508.06;2005839;29;20547;-62
2022/07/12 00:29:03;;;;;;;0.10;0.10;;;17.10;83.70;;;18.55;70.91;102514.88;2006260;29;20144;-63
2022/07/12 00:30:09;;;;;;;0.10;0.10;;;17.10;83.80;;;18.54;70.88;102499.59;2015553;29;20647;-61
2022/07/12 00:31:11;;;;;;;0.20;0.20;;;17.10;84.00;;;18.52;71.10;102503.84;2015976;29;20056;-62
2022/07/12 00:32:16;;;;;;;0.10;0.10;;;17.00;84.10;;;18.46;71.05;102497.84;2014903;29;20053;-63
2022/07/12 00:33:18;;;;;;;0.20;0.20;;;17.00;84.30;;;18.47;71.34;102499.41;2013843;29;20558;-62
2022/07/12 00:34:22;;;;;;;0.20;0.20;;;17.00;84.30;;;18.47;71.35;102499.41;2014001;29;20531;-63
2022/07/12 00:35:24;;;;;;;0.10;0.10;;;17.00;84.30;;;18.45;71.31;102492.72;2015469;29;20053;-62
2022/07/12 00:36:28;;;;;;;0.10;0.10;;;17.00;84.40;;;18.42;71.43;102491.50;2016994;29;20261;-62
2022/07/12 00:37:30;;;;;;;0.10;0.10;;;17.00;84.40;;;18.39;71.79;102492.22;2017452;29;20493;-63
2022/07/12 00:38:34;;;;;;;0.10;0.10;;;17.00;84.50;;;18.41;71.50;102498.09;2014902;29;20544;-65
2022/07/12 00:39:36;;;;;;;0.10;0.10;;;17.00;84.70;;;18.44;71.67;102499.34;2014991;29;20053;-62
2022/07/12 00:40:40;;;;;;;0.10;0.10;;;17.00;84.70;;;18.47;71.78;102510.38;2014565;29;20561;-62
2022/07/12 00:41:42;;;;;;;0.08;0.08;;;17.00;84.80;;;18.50;71.70;102509.69;2015046;29;20095;-63
2022/07/12 00:42:46;;;;;;;0.10;0.10;;;17.00;84.80;;;18.52;71.30;102507.38;2013804;29;20169;-63
2022/07/12 00:43:48;;;;;;;0.10;0.10;;;17.00;84.90;;;18.54;71.34;102507.81;2010281;29;20541;-62
2022/07/12 00:44:52;;;;;;;0.10;0.10;;;17.10;84.90;;;18.53;71.30;102498.03;2014882;29;20049;-62
2022/07/12 00:45:54;;;;;;;0.10;0.10;;;17.10;84.70;;;18.54;71.33;102505.09;2014783;29;20140;-66
2022/07/12 00:46:58;;;;;;;0.13;0.13;;;17.10;84.60;;;18.49;71.43;102508.06;2016989;29;20132;-62
2022/07/12 00:48:03;;;;;;;0.10;0.10;;;17.10;84.50;;;18.45;71.60;102495.47;2016113;29;20057;-62
2022/07/12 00:49:07;;;;;;;0.10;0.10;;;17.10;84.40;;;18.42;71.61;102501.66;2016678;29;20565;-62
2022/07/12 00:50:14;;;;;;;0.10;0.10;;;17.10;84.40;;;18.41;71.79;102503.56;2015888;29;20489;-63
2022/07/12 00:51:18;;;;;;;0.10;0.10;;;17.10;84.40;;;18.43;72.03;102503.22;2016585;29;20136;-62
2022/07/12 00:52:21;;;;;;;0.10;0.10;;;17.10;84.40;;;18.44;71.73;102494.66;2016998;29;20470;-62
2022/07/12 00:53:24;;;;;;;0.10;0.10;;;17.00;84.50;;;18.48;71.65;102495.56;2016138;29;20101;-62
2022/07/12 00:54:26;;;;;;;0.10;0.10;;;17.00;84.70;;;18.50;71.46;102496.00;2016193;29;20117;-65
2022/07/12 00:55:30;;;;;;;0.10;0.10;;;17.00;84.70;;;18.48;71.62;102500.22;2016590;29;20049;-63
2022/07/12 00:56:35;;;;;;;0.10;0.10;;;17.00;84.70;;;18.45;71.80;102490.78;2016310;29;20060;-62
2022/07/12 00:57:42;;;;;;;0.10;0.10;;;17.00;84.80;;;18.45;71.77;102485.31;2017173;29;20152;-62
2022/07/12 00:58:49;;;;;;;0.10;0.10;;;17.00;84.90;;;18.43;71.90;102484.88;2016854;29;20058;-62
2022/07/12 00:59:54;;;;;;;0.10;0.10;;;17.00;84.90;;;18.42;72.14;102483.31;2016618;29;20081;-61
2022/07/12 01:01:01;;;;;;;0.20;0.20;;;17.00;85.00;;;18.40;71.67;102488.31;2007927;29;20557;-62
2022/07/12 01:02:06;;;;;;;0.20;0.20;;;16.90;85.00;;;18.36;71.94;102484.66;2008963;29;20633;-62
2022/07/12 01:03:11;;;;;;;0.08;0.08;;;16.90;85.00;;;18.32;72.21;102491.19;2016367;29;20521;-63
2022/07/12 01:04:18;;;;;;;0.20;0.20;;;16.90;85.10;;;18.28;72.22;102491.13;2016645;29;20067;-62
2022/07/12 01:05:23;;;;;;;0.13;0.13;;;16.90;85.10;;;18.27;72.35;102488.72;2016326;29;20462;-62
2022/07/12 01:06:26;;;;;;;0.13;0.13;;;16.90;85.20;;;18.20;72.46;102472.94;2016461;29;20086;-62
2022/07/12 01:07:32;;;;;;;0.20;0.20;;;17.00;85.30;;;18.32;72.48;102492.00;2016382;29;20056;-62
2022/07/12 01:08:38;;;;;;;0.10;0.10;;;17.00;85.20;;;18.38;72.23;102496.06;2017281;29;20049;-61
2022/07/12 01:09:42;;;;;;;0.10;0.10;;;17.00;85.20;;;18.41;72.03;102494.59;2016971;29;20147;-62
2022/07/12 01:10:47;;;;;;;0.10;0.10;;;17.00;85.20;;;18.47;72.04;102496.69;2016585;29;20053;-61
2022/07/12 01:11:51;;;;;;;0.10;0.10;;;17.00;85.30;;;18.50;71.98;102490.53;2016138;29;20509;-63
2022/07/12 01:12:59;;;;;;;0.13;0.13;;;17.00;85.20;;;18.55;72.04;102503.91;2014677;29;20056;-62
2022/07/12 01:14:03;;;;;;;0.00;0.00;;;17.10;85.30;;;18.57;71.73;102501.63;2015716;29;20045;-63
2022/07/12 01:15:09;;;;;;;0.10;0.10;;;17.10;85.20;;;18.58;71.71;102505.97;2016026;29;20084;-62
2022/07/12 01:16:14;;;;;;;0.10;0.10;;;17.10;85.00;;;18.58;71.59;102510.66;2016736;29;20053;-63
2022/07/12 01:17:21;;;;;;;0.20;0.20;;;17.10;85.00;;;18.57;71.42;102503.56;2016326;29;20073;-65
2022/07/12 01:18:27;;;;;;;0.13;0.13;;;17.10;84.90;;;18.53;71.83;102511.72;2016443;29;20057;-62
2022/07/12 01:19:32;;;;;;;0.10;0.10;;;17.10;84.90;;;18.51;71.61;102505.78;2015916;29;20088;-62
2022/07/12 01:20:35;;;;;;;0.10;0.10;;;17.10;84.90;;;18.51;71.75;102510.47;2007578;29;20089;-62
2022/07/12 01:21:41;;;;;;;0.10;0.10;;;17.10;84.90;;;18.50;71.79;102512.41;2006319;29;20535;-62
2022/07/12 01:22:53;;;;;;;0.10;0.10;;;17.10;84.90;;;18.49;71.84;102510.81;2016895;29;20057;-62
2022/07/12 01:23:58;;;;;;;0.10;0.10;;;17.10;84.90;;;18.51;71.73;102511.25;2016090;29;20092;-62
2022/07/12 01:25:02;;;;;;;0.17;0.17;;;17.10;84.90;;;18.54;71.89;102515.22;2016117;29;20084;-63
2022/07/12 01:26:06;;;;;;;0.10;0.10;;;17.10;84.90;;;18.54;71.83;102509.75;2016231;29;20080;-62
2022/07/12 01:27:09;;;;;;;0.15;0.15;;;17.10;84.80;;;18.55;71.57;102516.81;2016330;29;20069;-62
2022/07/12 01:28:17;;;;;;;0.10;0.10;;;17.10;84.70;;;18.55;71.63;102523.06;2016442;29;20056;-62
2022/07/12 01:29:21;;;;;;;0.10;0.10;;;17.10;84.80;;;18.52;71.70;102506.59;2016992;29;20088;-62
2022/07/12 01:30:24;;;;;;;0.10;0.10;;;17.10;84.80;;;18.47;71.96;102499.41;2015418;29;20084;-64
2022/07/12 01:31:27;;;;;;;0.10;0.10;;;17.10;84.80;;;18.47;71.88;102510.38;2016408;29;20057;-62
2022/07/12 01:32:34;;;;;;;0.10;0.10;;;17.00;84.90;;;18.47;71.98;102510.38;2016086;29;20053;-62
2022/07/12 01:33:37;;;;;;;0.10;0.10;;;17.00;85.00;;;18.46;72.15;102508.78;2014188;29;20525;-62
2022/07/12 01:34:40;;;;;;;0.10;0.10;;;17.10;85.00;;;18.49;72.14;102502.59;2017296;29;20438;-62
2022/07/12 01:35:43;;;;;;;0.10;0.10;;;17.10;85.10;;;18.51;72.16;102500.31;2016452;29;20524;-62
2022/07/12 01:36:48;;;;;;;0.28;0.20;;;17.10;85.00;;;18.53;71.67;102502.69;2016683;29;20056;-62
2022/07/12 01:37:52;;;;;;;0.10;0.10;;;17.10;85.00;;;18.50;71.88;102509.69;2014658;29;20060;-62
2022/07/12 01:38:56;;;;;;;0.20;0.20;;;17.10;84.90;;;18.48;71.88;102509.22;2016417;29;20053;-62
2022/07/12 01:39:59;;;;;;;0.10;0.10;;;17.10;84.90;;;18.46;71.86;102508.78;2016248;29;20090;-62
2022/07/12 01:41:03;;;;;;;0.70;0.40;;;17.00;84.90;;;18.45;72.01;102507.22;2015964;29;20057;-62
2022/07/12 01:42:05;;;;;;;0.28;0.20;;;17.00;84.90;;;18.41;72.08;102511.78;2015977;29;20145;-62
2022/07/12 01:43:09;;;;;;;0.10;0.10;;;17.00;85.50;;;18.36;72.05;102505.75;2016582;29;20065;-63
2022/07/12 01:44:12;;;;;;;0.20;0.20;;;16.90;85.00;;;18.31;72.37;102511.50;2015544;29;20489;-63
2022/07/12 01:45:17;;;;;;;0.10;0.10;;;16.90;85.10;;;18.27;72.51;102505.94;2016366;29;20513;-62
2022/07/12 01:46:20;;;;;;;0.10;0.10;;;16.90;85.30;;;18.25;72.48;102501.97;2016218;29;20132;-63
2022/07/12 01:47:27;;;;;;;0.10;0.10;;;16.90;85.50;;;18.24;72.44;102512.09;2015698;29;20548;-62
2022/07/12 01:48:31;;;;;;;0.10;0.10;;;16.80;85.50;;;18.27;72.33;102502.38;2006999;29;20089;-62
2022/07/12 01:49:33;;;;;;;0.17;0.17;;;16.80;85.70;;;18.29;72.63;102516.50;2006128;29;20542;-63
2022/07/12 01:50:37;;;;;;;0.10;0.08;;;16.80;85.80;;;18.30;72.25;102507.19;2016303;29;20053;-63
2022/07/12 01:51:39;;;;;;;0.10;0.10;;;16.80;86.00;;;18.30;72.25;102510.69;2015081;29;20514;-62
2022/07/12 01:52:43;;;;;;;0.10;0.10;;;16.70;86.00;;;18.25;72.51;102505.47;2015363;29;20049;-63
2022/07/12 01:53:46;;;;;;;0.10;0.10;;;16.70;86.20;;;18.20;72.85;102505.75;2015925;29;20081;-62
2022/07/12 01:54:50;;;;;;;0.10;0.10;;;16.70;86.20;;;18.17;72.97;102511.91;2015034;29;20103;-62
2022/07/12 01:55:53;;;;;;;0.15;0.15;;;16.70;86.20;;;18.16;72.89;102510.31;2015723;29;20525;-62
2022/07/12 01:56:56;;;;;;;0.20;0.20;;;16.70;86.10;;;18.15;73.29;102513.41;2015487;29;20064;-62
2022/07/12 01:58:01;;;;;;;0.10;0.10;;;16.70;86.20;;;18.13;73.00;102519.22;2015142;29;20061;-62
2022/07/12 01:59:03;;;;;;;0.63;0.47;;;16.70;86.20;;;18.11;73.33;102509.81;2016010;29;20065;-62
2022/07/12 02:00:08;;;;;;;0.20;0.20;;;16.70;86.30;;;18.05;73.67;102509.25;2008124;29;20056;-62
2022/07/12 02:01:11;;;;;;;0.32;0.30;;;16.70;86.30;;;17.99;73.95;102507.13;2008693;29;20528;-62
2022/07/12 02:02:15;;;;;;;0.10;0.10;;;16.70;86.30;;;18.01;73.69;102511.13;2016170;29;20065;-62
2022/07/12 02:03:19;;;;;;;0.20;0.20;;;16.70;86.40;;;18.00;73.81;102506.78;2016177;29;20414;-67
2022/07/12 02:04:22;;;;;;;0.17;0.17;;;16.70;86.50;;;18.00;73.82;102509.50;2016248;29;20545;-62
2022/07/12 02:05:26;;;;;;;0.10;0.10;;;16.70;86.60;;;18.00;73.67;102506.78;2015755;29;20509;-63
2022/07/12 02:06:29;;;;;;;1.35;0.75;;;16.60;86.80;;;18.00;74.12;102506.78;2016307;29;20060;-63
2022/07/12 02:07:33;;;;;;;0.40;0.30;;;16.60;86.90;;;17.96;73.99;102500.44;2016238;29;20136;-63
2022/07/12 02:08:36;;;;;;;0.22;0.22;;;16.60;86.90;;;17.93;73.99;102507.38;2014752;29;20124;-62
2022/07/12 02:09:40;;;;;;;0.30;0.30;;;16.60;86.90;;;17.92;74.05;102503.06;2015500;29;20057;-62
2022/07/12 02:10:43;;;;;;;0.20;0.20;;;16.60;87.10;;;17.90;74.35;102499.88;2015629;29;20080;-62
2022/07/12 02:11:47;;;;;;;0.20;0.20;;;16.60;87.10;;;17.89;74.30;102498.28;2015669;29;20084;-63
2022/07/12 02:12:51;;;;;;;0.60;0.40;;;16.60;87.30;;;17.88;74.27;102493.19;2015975;29;20060;-63
2022/07/12 02:13:54;;;;;;;0.88;0.50;;;16.50;87.40;;;17.86;74.56;102492.72;2015472;29;20057;-62
2022/07/12 02:14:57;;;;;;;0.50;0.30;;;16.50;87.40;;;17.84;74.51;102489.53;2015651;29;20508;-63
2022/07/12 02:15:59;;;;;;;0.20;0.20;;;16.50;87.40;;;17.81;74.90;102487.50;2016106;29;20135;-62
2022/07/12 02:17:03;;;;;;;0.30;0.30;;;16.50;87.50;;;17.79;75.12;102484.34;2016063;29;20543;-62
2022/07/12 02:18:05;;;;;;;0.30;0.30;;;16.50;87.80;;;17.72;74.98;102473.22;2015942;29;20076;-63
2022/07/12 02:19:10;;;;;;;0.30;0.30;;;16.50;87.80;;;17.82;74.62;102486.38;2015728;29;20088;-62
2022/07/12 02:20:12;;;;;;;0.40;0.40;;;16.50;87.90;;;17.81;74.90;102484.78;2015853;29;20183;-62
2022/07/12 02:21:16;;;;;;;0.30;0.30;;;16.50;87.80;;;17.81;74.76;102477.38;2015812;29;20056;-62
2022/07/12 02:22:18;;;;;;;2.03;1.00;;;16.50;87.90;;;17.81;74.67;102482.84;2016480;29;20056;-62
2022/07/12 02:23:22;;;;;;;0.90;0.50;;;16.50;88.00;;;17.70;74.64;102461.84;2016249;29;20470;-62
2022/07/12 02:24:24;;;;;;;1.40;0.85;;;16.40;87.90;;;17.76;75.05;102480.38;2014428;29;20474;-63
2022/07/12 02:25:29;;;;;;;0.20;0.20;;;16.40;88.00;;;17.76;75.17;102479.56;2015030;29;20434;-62
2022/07/12 02:26:33;;;;;;;0.32;0.30;;;16.40;88.10;;;17.75;75.24;102477.97;2016042;29;20061;-62
2022/07/12 02:27:39;;;;;;;0.20;0.20;;;16.40;88.20;;;17.73;75.26;102472.88;2015859;29;20098;-63
2022/07/12 02:28:41;;;;;;;1.20;0.65;;;16.40;88.30;;;17.71;75.32;102472.41;2015670;29;20533;-63
2022/07/12 02:29:45;;;;;;;2.25;1.10;;;16.40;88.40;;;17.72;75.33;102468.56;2015567;29;20557;-64
2022/07/12 02:30:47;;;;;;;1.98;0.90;;;16.40;88.40;;;17.70;75.31;102465.38;2015180;29;20398;-62
2022/07/12 02:31:51;;;;;;;0.35;0.30;;;16.40;88.50;;;17.68;75.33;102473.13;2022303;29;20053;-62
2022/07/12 02:32:54;;;;;;;0.30;0.30;;;16.40;88.60;;;17.66;75.51;102469.16;2021791;29;20055;-63
2022/07/12 02:33:58;;;;;;;0.20;0.20;;;16.30;88.80;;;17.64;75.60;102466.78;2015547;29;20442;-63
2022/07/12 02:35:00;;;;;;;2.22;1.20;;;16.30;88.70;;;17.64;75.73;102474.16;2015607;29;20425;-64
2022/07/12 02:36:05;;;;;;;0.85;0.50;;;16.30;88.90;;;17.61;75.87;102472.13;2015828;29;20103;-62
2022/07/12 02:37:07;;;;;;;1.00;0.50;;;16.20;89.00;;;17.54;75.81;102463.72;2016240;29;20406;-62
2022/07/12 02:38:10;;;;;;;1.98;0.90;;;16.20;89.10;;;17.54;76.14;102472.72;2016106;29;20404;-62
2022/07/12 02:39:13;;;;;;;2.15;1.15;;;16.20;89.20;;;17.53;76.27;102475.81;2015338;29;20060;-62
2022/07/12 02:41:39;;;;;;;2.50;1.10;;;16.20;89.30;;;17.49;76.36;102469.47;2016383;29;20049;-62
2022/07/12 02:42:42;;;;;;;0.55;0.40;;;16.20;89.30;;;17.45;76.45;102474.03;2015452;29;20060;-62
2022/07/12 02:43:46;;;;;;;0.90;0.50;;;16.20;89.40;;;17.44;76.42;102483.34;2015868;29;20063;-62
2022/07/12 02:44:48;;;;;;;1.35;0.60;;;16.20;89.40;;;17.40;76.76;102479.69;2016462;29;20573;-62
2022/07/12 02:45:52;;;;;;;0.43;0.35;;;16.20;89.50;;;17.39;77.00;102486.31;2007649;29;20088;-62
2022/07/12 02:46:55;;;;;;;1.88;1.00;;;16.20;89.60;;;17.37;77.07;102483.91;2013959;29;20061;-63
2022/07/12 02:47:58;;;;;;;1.70;0.80;;;16.20;89.80;;;17.36;77.23;102482.31;2021038;29;20060;-64
2022/07/12 02:49:01;;;;;;;2.30;1.00;;;16.20;89.70;;;17.37;77.05;102485.84;2015956;29;20215;-63
2022/07/12 02:50:06;;;;;;;2.03;0.90;;;16.20;89.80;;;17.37;77.20;102494.84;2016391;29;20056;-63
2022/07/12 02:51:09;;;;;;;1.20;0.50;;;16.20;89.80;;;17.38;77.17;102495.63;2015710;29;20093;-63
2022/07/12 02:52:13;;;;;;;0.20;0.20;;;16.20;90.00;;;17.40;76.92;102487.88;2014988;29;20069;-61
2022/07/12 02:53:16;;;;;;;0.20;0.20;;;16.20;90.00;;;17.43;76.94;102493.44;2015356;29;20083;-62
2022/07/12 02:54:19;;;;;;;0.57;0.38;;;16.20;90.10;;;17.46;77.13;102498.25;2015247;29;20175;-62
2022/07/12 02:55:21;;;;;;;1.77;0.90;;;16.20;90.10;;;17.50;77.02;102498.34;2015797;29;20674;-62
2022/07/12 02:56:25;;;;;;;0.85;0.52;;;16.20;90.10;;;17.48;76.84;102503.34;2014952;29;20405;-62
2022/07/12 02:57:28;;;;;;;0.73;0.40;;;16.20;90.10;;;17.48;76.98;102497.91;2015044;29;20104;-62
2022/07/12 02:58:32;;;;;;;0.10;0.10;;;16.20;90.00;;;17.51;77.02;102498.00;2015756;29;20057;-62
2022/07/12 02:59:34;;;;;;;0.47;0.30;;;16.30;90.10;;;17.55;76.80;102496.16;2015285;29;20132;-63
2022/07/12 03:00:38;;;;;;;0.28;0.25;;;16.20;90.10;;;17.60;76.87;102503.34;2015816;29;20057;-62
2022/07/12 03:01:41;;;;;;;1.70;0.70;;;16.30;90.10;;;17.65;76.59;102505.78;2016064;29;20057;-62
2022/07/12 03:02:44;;;;;;;0.50;0.30;;;16.30;90.10;;;17.69;76.48;102501.25;2015283;29;20060;-63
2022/07/12 03:03:47;;;;;;;0.10;0.10;;;16.30;90.10;;;17.72;76.49;102500.53;2015702;29;20057;-62
2022/07/12 03:04:50;;;;;;;0.35;0.25;;;16.30;90.00;;;17.73;76.37;102502.94;2016040;29;20858;-63
2022/07/12 03:05:52;;;;;;;2.60;1.10;;;16.40;90.00;;;17.73;76.37;102497.47;2016262;29;20514;-62
2022/07/12 03:06:56;;;;;;;1.40;0.73;;;16.40;90.00;;;17.71;76.25;102493.50;2015237;29;20099;-62
2022/07/12 03:07:58;;;;;;;2.00;0.90;;;16.40;89.80;;;17.64;76.27;102502.28;2015233;29;20581;-62
2022/07/12 03:09:04;;;;;;;1.65;0.85;;;16.30;89.70;;;17.61;76.33;102496.72;2015411;29;20065;-63
2022/07/12 03:10:08;;;;;;;0.40;0.30;;;16.30;89.60;;;17.58;76.50;102506.38;2016397;29;20132;-63
2022/07/12 03:11:11;;;;;;;0.73;0.47;;;16.30;89.70;;;17.53;76.65;102495.72;2015692;29;20576;-63
2022/07/12 03:12:14;;;;;;;1.13;0.60;;;16.30;89.70;;;17.52;76.46;102496.09;2015015;29;20095;-63
2022/07/12 03:13:19;;;;;;;2.30;1.20;;;16.20;89.70;;;17.53;76.70;102492.19;2015053;29;20172;-62
2022/07/12 03:14:21;;;;;;;1.02;0.60;;;16.30;89.70;;;17.52;76.69;102490.63;2014755;29;20100;-62
2022/07/12 03:15:25;;;;;;;0.80;0.50;;;16.30;89.80;;;17.53;77.06;102492.19;2015915;29;20132;-63
2022/07/12 03:16:27;;;;;;;1.88;0.88;;;16.30;89.80;;;17.52;76.94;102491.41;2014739;29;20136;-63
2022/07/12 03:17:31;;;;;;;1.23;0.60;;;16.30;89.90;;;17.52;77.08;102496.84;2014721;29;20057;-62
2022/07/12 03:18:35;;;;;;;0.50;0.40;;;16.20;89.90;;;17.50;77.01;102499.16;2014216;29;20081;-63
2022/07/12 03:19:38;;;;;;;1.02;0.52;;;16.30;89.90;;;17.51;77.07;102494.47;2014705;29;20080;-62
2022/07/12 03:20:41;;;;;;;1.48;0.65;;;16.20;89.90;;;17.48;76.96;102489.72;2016204;29;20056;-62
2022/07/12 03:21:44;;;;;;;0.30;0.30;;;16.20;90.00;;;17.47;77.12;102491.63;2015257;29;20092;-63
2022/07/12 03:22:51;;;;;;;0.90;0.50;;;16.20;89.90;;;17.47;77.03;102493.59;2015102;29;20402;-62
2022/07/12 03:23:55;;;;;;;1.75;0.70;;;16.20;89.90;;;17.48;76.86;102500.63;2014614;29;20143;-62
2022/07/12 03:25:00;;;;;;;3.08;1.30;;;16.20;90.00;;;17.47;76.96;102496.31;2015047;29;20057;-63
2022/07/12 03:26:07;;;;;;;1.98;1.00;;;16.20;89.90;;;17.43;76.72;102498.09;2015237;29;20176;-62
2022/07/12 03:27:10;;;;;;;2.22;0.95;;;16.20;89.70;;;17.37;76.85;102496.78;2016356;29;20056;-62
2022/07/12 03:28:13;;;;;;;1.52;0.70;;;16.20;89.70;;;17.33;76.90;102493.16;2015340;29;20057;-62
2022/07/12 03:29:17;;;;;;;0.82;0.50;;;16.10;89.80;;;17.32;77.08;102497.00;2015231;29;20060;-63
2022/07/12 03:30:21;;;;;;;0.47;0.40;;;16.10;89.90;;;17.30;76.87;102502.03;2006480;29;20172;-63
2022/07/12 03:31:24;;;;;;;0.65;0.40;;;16.00;89.90;;;17.29;77.16;102497.69;2007515;29;20101;-63
2022/07/12 03:32:27;;;;;;;0.20;0.20;;;16.10;90.00;;;17.31;77.27;102496.22;2016301;29;20405;-62
2022/07/12 03:33:30;;;;;;;0.30;0.30;;;16.10;90.10;;;17.35;77.00;102501.78;2015128;29;20525;-64
2022/07/12 03:34:35;;;;;;;0.30;0.30;;;16.10;90.20;;;17.38;77.00;102504.59;2015776;29;20068;-62
2022/07/12 03:35:38;;;;;;;0.30;0.30;;;16.10;90.10;;;17.41;76.93;102506.66;2015247;29;20564;-62
2022/07/12 03:36:41;;;;;;;0.82;0.52;;;16.10;90.10;;;17.45;76.67;102512.25;2015265;29;20084;-63
2022/07/12 03:37:45;;;;;;;0.40;0.30;;;16.10;90.10;;;17.42;76.92;102507.44;2016077;29;20061;-62
2022/07/12 03:38:49;;;;;;;0.30;0.22;;;16.10;90.10;;;17.42;76.71;102502.00;2007160;29;20049;-63
2022/07/12 03:39:53;;;;;;;0.20;0.20;;;16.10;90.00;;;17.43;76.54;102503.56;2015762;29;20048;-63
2022/07/12 03:40:56;;;;;;;0.90;0.40;;;16.10;90.00;;;17.43;76.62;102498.91;2014673;29;20063;-62
2022/07/12 03:41:59;;;;;;;0.88;0.50;;;16.10;90.00;;;17.40;76.86;102493.34;2015191;29;20057;-63
2022/07/12 03:43:03;;;;;;;0.20;0.20;;;16.20;90.00;;;17.38;76.84;102495.63;2016211;29;20067;-64
2022/07/12 03:44:05;;;;;;;1.08;0.50;;;16.20;89.90;;;17.36;76.91;102489.72;2014930;29;20549;-62
2022/07/12 03:45:13;;;;;;;0.85;0.40;;;16.20;89.80;;;17.27;76.86;102481.66;2015550;29;20069;-63
2022/07/12 03:46:15;;;;;;;0.52;0.40;;;16.20;89.80;;;17.39;77.02;102494.50;2015629;29;20156;-62
2022/07/12 03:47:19;;;;;;;0.43;0.32;;;16.20;89.80;;;17.42;77.01;102497.34;2014486;29;20084;-62
2022/07/12 03:48:21;;;;;;;0.20;0.20;;;16.20;89.90;;;17.45;77.04;102498.59;2016093;29;20060;-63
2022/07/12 03:49:28;;;;;;;0.75;0.40;;;16.20;89.90;;;17.45;76.89;102501.31;2021147;29;20055;-63
2022/07/12 03:50:30;;;;;;;1.50;0.68;;;16.20;89.90;;;17.44;77.10;102505.97;2020173;29;20096;-62
2022/07/12 03:51:34;;;;;;;0.82;0.50;;;16.20;89.80;;;17.44;77.05;102507.91;2015505;29;20052;-62
2022/07/12 03:52:37;;;;;;;0.43;0.32;;;16.20;89.70;;;17.39;76.89;102502.69;2014714;29;20413;-66
2022/07/12 03:53:40;;;;;;;1.23;0.60;;;16.20;90.10;;;17.38;77.29;102501.06;2016015;29;20049;-62
2022/07/12 03:54:42;;;;;;;0.63;0.40;;;16.20;89.80;;;17.40;77.07;102504.25;2015123;29;20056;-62
2022/07/12 03:55:48;;;;;;;1.67;0.70;;;16.20;89.80;;;17.40;77.33;102504.25;2015639;29;20084;-62
2022/07/12 03:58:13;;;;;;;1.50;0.70;;;16.10;89.90;;;17.40;76.81;102501.53;2009680;29;20064;-62
2022/07/12 03:59:15;;;;;;;1.27;0.70;;;16.10;90.00;;;17.37;76.83;102510.41;2014721;29;20553;-62
2022/07/12 04:00:20;;;;;;;1.92;0.90;;;16.10;90.00;;;17.32;77.09;102507.91;2015659;29;20053;-66
2022/07/12 04:01:22;;;;;;;0.32;0.32;;;16.00;90.10;;;17.27;77.06;102500.78;2014583;29;20053;-62
2022/07/12 04:02:26;;;;;;;1.40;0.70;;;16.00;90.10;;;17.23;77.31;102497.16;2014467;29;20060;-62
2022/07/12 04:03:28;;;;;;;2.15;0.80;;;16.00;90.20;;;17.20;77.58;102497.84;2016145;29;20064;-62
2022/07/12 04:04:32;;;;;;;2.55;1.00;;;16.00;90.20;;;17.18;77.54;102508.31;2021224;29;20056;-62
2022/07/12 04:05:35;;;;;;;2.13;0.90;;;16.00;90.20;;;17.17;77.87;102497.75;2021389;29;20069;-62
2022/07/12 04:06:38;;;;;;;0.75;0.50;;;16.00;90.30;;;17.08;77.90;102480.69;2014100;29;20091;-62
2022/07/12 04:07:42;;;;;;;0.75;0.40;;;16.00;90.30;;;17.16;77.65;102499.66;2014231;29;20513;-62
2022/07/12 04:08:44;;;;;;;0.77;0.55;;;16.00;90.60;;;17.20;78.03;102499.78;2014868;29;20056;-62
2022/07/12 04:09:48;;;;;;;0.95;0.50;;;16.00;90.40;;;17.23;77.92;102499.09;2014511;29;20505;-62
2022/07/12 04:10:51;;;;;;;0.88;0.40;;;16.00;90.40;;;17.24;77.87;102506.94;2008240;29;20507;-65
2022/07/12 04:11:54;;;;;;;0.52;0.40;;;16.00;90.40;;;17.19;77.97;102493.50;2015287;29;20057;-63
2022/07/12 04:12:57;;;;;;;1.10;0.60;;;16.10;90.40;;;17.22;77.84;102497.50;2013525;29;20068;-63
2022/07/12 04:14:00;;;;;;;1.55;0.68;;;16.10;90.40;;;17.24;77.84;102501.47;2014805;29;20502;-63
2022/07/12 04:15:04;;;;;;;2.17;0.98;;;16.10;90.40;;;17.26;77.86;102501.13;2014374;29;20092;-63
2022/07/12 04:16:08;;;;;;;1.17;0.60;;;16.00;90.30;;;17.24;77.88;102503.38;2015550;29;20505;-63
2022/07/12 04:17:12;;;;;;;2.38;0.93;;;16.00;90.30;;;17.24;78.03;102495.19;2014593;29;20536;-62
2022/07/12 04:18:15;;;;;;;1.45;0.70;;;16.00;90.30;;;17.23;78.01;102493.63;2015100;29;20061;-63
2022/07/12 04:19:18;;;;;;;1.95;0.93;;;16.00;90.40;;;17.22;78.14;102497.50;2015061;29;20128;-63
2022/07/12 04:20:21;;;;;;;2.40;1.00;;;16.00;90.40;;;17.18;78.18;102491.13;2014610;29;20085;-63
2022/07/12 04:21:24;;;;;;;1.98;0.90;;;16.00;90.50;;;17.14;78.34;102495.69;2006609;29;20069;-63
2022/07/12 04:22:28;;;;;;;2.13;1.10;;;16.00;90.50;;;17.12;78.51;102495.25;2007391;29;20056;-63
2022/07/12 04:23:31;;;;;;;2.05;1.02;;;16.00;90.50;;;17.09;78.92;102493.19;2014222;29;20544;-63
2022/07/12 04:24:34;;;;;;;1.58;0.75;;;16.00;90.60;;;17.03;78.77;102486.41;2015538;29;20072;-63
2022/07/12 04:25:37;;;;;;;1.42;0.70;;;16.00;90.60;;;17.07;78.97;102495.47;2015162;29;20057;-63
2022/07/12 04:26:41;;;;;;;1.58;0.70;;;16.00;90.60;;;17.02;79.14;102491.06;2015236;29;20574;-62
2022/07/12 04:27:45;;;;;;;1.15;0.60;;;16.00;90.70;;;17.00;79.35;102495.28;2015423;29;20132;-63